Latest Weather Observations for Mallacoota

IDV60801

Issued at 6:32 pm EST Tuesday 27 June 2017 (issued every 30 minutes, with the page automatically refreshed every 10 minutes)

About weather observations | Map of weather stations | Latest weather observations for VIC | Other Formats
Station Details ID: 084084 Name: MALLACOOTA Lat: -37.60 Lon: 149.73 Height: 22.0 m
Data from the previous 72 hours. | See also: Recent months at Mallacoota
Date/Time
EST
Temp
°C
App
Temp
°C
Dew
Point
°C
Rel
Hum
%
Delta-T
°C
Wind Press
QNH
hPa
Press
MSL
hPa
Rain since
9am
mm
Dir  Spd
km/h
Gust
km/h
Spd
kts
Gust
kts
27/06:30pm 8.9 6.3 6.3 84 1.2 NNW 9 9 5 5 1024.4 1024.5 0.0
27/06:00pm 9.4 6.9 6.5 82 1.3 NNW 9 13 5 7 1024.3 1024.3 0.0
27/05:30pm 9.9 7.4 6.6 80 1.5 N 9 11 5 6 1024.1 1024.1 0.0
27/05:00pm 10.6 8.1 6.4 75 2.0 N 9 13 5 7 1023.9 1023.9 0.0
27/04:30pm 12.0 9.1 6.7 70 2.5 NNE 11 17 6 9 1023.7 1023.7 0.0
27/04:00pm 12.9 9.3 6.9 67 2.9 NE 15 20 8 11 1023.5 1023.5 0.0
27/03:30pm 13.4 11.0 7.0 65 3.1 E 9 15 5 8 1023.7 1023.7 0.0
27/03:00pm 13.1 10.1 5.8 61 3.4 E 11 19 6 10 1023.8 1023.8 0.0
27/02:30pm 13.5 10.8 5.7 59 3.7 E 9 13 5 7 1023.8 1023.8 0.0
27/02:00pm 13.4 11.2 6.3 62 3.4 SE 7 9 4 5 1024.0 1024.0 0.0
27/01:30pm 13.5 11.3 6.4 62 3.4 SE 7 11 4 6 1024.1 1024.1 0.0
27/01:00pm 13.9 11.8 6.5 61 3.5 ESE 7 9 4 5 1024.5 1024.6 0.0
27/12:30pm 13.9 11.4 6.7 62 3.5 ESE 9 9 5 5 1025.0 1025.1 0.0
27/12:00pm 13.1 10.9 6.0 62 3.3 E 7 9 4 5 1025.3 1025.4 0.0
27/11:30am 12.9 10.7 6.0 63 3.3 E 7 9 4 5 1025.8 1025.9 0.0
27/11:00am 12.6 10.2 6.9 68 2.7 ENE 9 11 5 6 1026.2 1026.3 0.0
27/10:30am 12.9 10.9 6.3 64 3.1 NNW 6 9 3 5 1026.7 1026.8 0.0
27/10:00am 11.1 9.0 5.8 70 2.4 NNW 6 9 3 5 1026.9 1027.0 0.0
27/09:30am 7.9 5.5 4.5 79 1.5 NW 6 7 3 4 1026.9 1027.0 0.0
27/09:00am 7.2 4.5 3.8 79 1.4 NNW 7 9 4 5 1026.8 1026.9 0.4
27/08:30am 8.2 5.3 4.8 79 1.5 NW 9 15 5 8 1026.6 1026.7 0.4
27/08:00am 6.2 2.8 3.9 85 1.0 NW 11 17 6 9 1026.4 1026.5 0.4
27/07:30am 5.7 2.3 3.9 88 0.8 WNW 11 15 6 8 1026.4 1026.5 0.4
27/07:00am 5.7 2.7 4.0 89 0.7 NW 9 11 5 6 1026.4 1026.5 0.4
27/06:30am 6.3 3.8 4.5 88 0.8 NW 7 9 4 5 1026.3 1026.4 0.4
27/06:00am 7.1 4.8 4.8 85 1.0 NW 6 9 3 5 1026.1 1026.2 0.4
27/05:30am 7.7 5.4 5.7 87 0.9 WNW 7 9 4 5 1025.9 1026.0 0.4
27/05:00am 7.6 5.8 5.6 87 0.9 NW 4 9 2 5 1025.8 1025.9 0.4
27/04:30am 7.6 5.5 5.6 87 0.9 NW 6 9 3 5 1025.7 1025.8 0.4
27/04:00am 7.3 4.9 5.4 88 0.8 NW 7 11 4 6 1025.6 1025.7 0.4
27/03:30am 7.0 4.6 5.2 88 0.8 NW 7 9 4 5 1025.5 1025.6 0.4
27/03:00am 7.5 5.2 5.6 88 0.8 NW 7 11 4 6 1025.6 1025.7 0.2
27/02:30am 6.9 4.4 4.9 87 0.9 NW 7 9 4 5 1025.7 1025.8 0.2
27/02:00am 7.5 4.7 5.3 86 1.0 NW 9 13 5 7 1025.5 1025.6 0.2
27/01:30am 7.8 5.4 5.4 85 1.1 NW 7 15 4 8 1025.2 1025.3 0.2
27/01:00am 8.3 5.6 5.8 84 1.1 WNW 9 13 5 7 1025.2 1025.3 0.2
27/12:30am 8.4 5.8 5.9 84 1.1 WNW 9 13 5 7 1025.3 1025.4 0.2
27/12:00am 8.5 5.1 5.8 83 1.2 WNW 13 19 7 10 1025.4 1025.5 0.2
 
Date/Time
EST
Temp
°C
App
Temp
°C
Dew
Point
°C
Rel
Hum
%
Delta-T
°C
Wind Press
QNH
hPa
Press
MSL
hPa
Rain since
9am
mm
Dir  Spd
km/h
Gust
km/h
Spd
kts
Gust
kts
26/11:30pm 8.6 5.6 6.1 84 1.1 WNW 11 17 6 9 1025.6 1025.7 0.2
26/11:00pm 8.4 6.2 6.2 86 1.0 WNW 7 13 4 7 1025.7 1025.8 0.2
26/10:30pm 8.8 5.9 6.4 85 1.1 W 11 19 6 10 1025.4 1025.5 0.2
26/10:00pm 9.0 5.7 6.6 85 1.1 WNW 13 20 7 11 1025.5 1025.6 0.2
26/09:30pm 9.0 6.6 6.8 86 1.0 W 9 17 5 9 1025.3 1025.4 0.2
26/09:00pm 8.6 6.1 6.7 88 0.9 WNW 9 13 5 7 1025.1 1025.2 0.2
26/08:30pm 9.3 7.4 7.4 88 0.9 WSW 7 11 4 6 1025.2 1025.3 0.2
26/08:00pm 9.4 6.7 7.5 88 0.9 WNW 11 17 6 9 1025.1 1025.2 0.2
26/07:30pm 9.5 6.9 7.6 88 0.9 W 11 17 6 9 1024.7 1024.8 0.2
26/07:00pm 9.1 6.8 7.4 89 0.8 WNW 9 15 5 8 1024.3 1024.3 0.2
26/06:30pm 9.2 6.9 7.5 89 0.8 WNW 9 13 5 7 1023.9 1023.9 0.2
26/06:00pm 9.7 7.1 7.8 88 0.9 W 11 19 6 10 1023.5 1023.5 0.0
26/05:30pm 10.4 6.9 7.3 81 1.5 WSW 15 30 8 16 1023.5 1023.5 0.0
26/05:00pm 11.0 8.5 6.7 75 2.0 WSW 9 19 5 10 1023.2 1023.2 0.0
26/04:30pm 11.2 8.3 6.5 73 2.2 W 11 19 6 10 1022.8 1022.8 0.0
26/04:00pm 11.4 8.1 6.3 71 2.4 WSW 13 28 7 15 1022.6 1022.6 0.0
26/03:30pm 11.7 7.7 6.6 71 2.4 WSW 17 32 9 17 1022.2 1022.2 0.0
26/03:00pm 11.2 7.0 7.3 77 1.9 WSW 19 30 10 16 1022.1 1022.1 0.0
26/02:30pm 12.2 8.3 6.9 70 2.5 WSW 17 30 9 16 1021.6 1021.6 0.0
26/02:00pm 11.7 7.5 7.6 76 2.0 SW 19 32 10 17 1021.7 1021.7 0.0
26/01:48pm 11.8 7.4 7.3 74 2.2 SW 20 46 11 25 1021.6 1021.6 0.0
26/01:47pm 11.8 7.3 7.1 73 2.3 SW 20 46 11 25 1021.6 1021.6 0.0
26/01:30pm 12.7 9.6 7.4 70 2.6 SW 13 22 7 12 1021.3 1021.3 0.0
26/01:00pm 12.4 8.1 6.9 69 2.6 WSW 19 35 10 19 1021.3 1021.3 0.0
26/12:30pm 12.1 7.6 7.0 71 2.4 WSW 20 33 11 18 1021.3 1021.3 0.0
26/12:00pm 13.5 9.1 7.3 66 3.0 SW 20 33 11 18 1021.1 1021.1 0.0
26/11:30am 12.9 8.3 6.7 66 3.0 SW 20 32 11 17 1021.3 1021.3 0.0
26/11:00am 13.8 9.2 5.7 58 3.8 WSW 19 33 10 18 1021.1 1021.1 0.0
26/10:30am 12.9 8.3 5.8 62 3.3 WSW 19 30 10 16 1021.2 1021.2 0.0
26/10:00am 12.7 8.9 5.6 62 3.3 WSW 15 28 8 15 1020.9 1020.9 0.0
26/09:30am 11.4 7.1 5.3 66 2.8 W 17 30 9 16 1020.6 1020.6 0.0
26/09:00am 11.6 7.4 5.5 66 2.8 W 17 24 9 13 1020.1 1020.1 0.0
26/08:30am 10.2 5.8 4.8 69 2.4 W 17 28 9 15 1019.8 1019.8 0.0
26/08:00am 10.1 6.1 4.9 70 2.3 W 15 26 8 14 1019.3 1019.3 0.0
26/07:30am 9.6 6.3 4.8 72 2.1 W 11 22 6 12 1018.8 1018.8 0.0
26/07:00am 9.5 5.5 4.7 72 2.1 W 15 22 8 12 1018.5 1018.5 0.0
26/06:30am 9.7 5.7 4.9 72 2.2 WNW 15 26 8 14 1018.1 1018.1 0.0
26/06:00am 9.8 5.8 5.0 72 2.2 WNW 15 24 8 13 1017.5 1017.5 0.0
26/05:30am 9.7 6.5 5.1 73 2.1 W 11 20 6 11 1017.2 1017.2 0.0
26/05:00am 9.8 6.9 4.8 71 2.2 W 9 17 5 9 1017.0 1017.0 0.0
26/04:30am 10.4 6.0 5.0 69 2.4 W 17 30 9 16 1016.8 1016.8 0.0
26/04:00am 10.2 5.7 4.4 67 2.6 W 17 28 9 15 1016.5 1016.5 0.0
26/03:30am 9.8 6.0 3.8 66 2.6 W 13 24 7 13 1016.4 1016.4 0.0
26/03:00am 9.0 5.5 3.4 68 2.4 W 11 17 6 9 1016.0 1016.0 0.0
26/02:30am 8.9 5.7 3.3 68 2.4 W 9 15 5 8 1016.2 1016.2 0.0
26/02:00am 8.6 5.5 3.4 70 2.2 W 9 15 5 8 1016.2 1016.2 0.0
26/01:30am 7.7 4.8 2.4 69 2.2 W 7 13 4 7 1015.9 1015.9 0.0
26/01:00am 8.6 5.4 3.0 68 2.4 W 9 17 5 9 1015.5 1015.5 0.0
26/12:30am 7.5 4.6 2.6 71 2.0 W 7 9 4 5 1015.7 1015.7 0.0
26/12:00am 8.4 5.1 2.2 65 2.6 W 9 13 5 7 1015.7 1015.7 0.0
 
Date/Time
EST
Temp
°C
App
Temp
°C
Dew
Point
°C
Rel
Hum
%
Delta-T
°C
Wind Press
QNH
hPa
Press
MSL
hPa
Rain since
9am
mm
Dir  Spd
km/h
Gust
km/h
Spd
kts
Gust
kts
25/11:30pm 7.9 4.2 2.6 69 2.2 WNW 11 17 6 9 1015.6 1015.6 0.0
25/11:00pm 4.6 1.2 2.1 84 1.0 WNW 9 13 5 7 1015.6 1015.6 0.0
25/10:30pm 5.9 2.4 3.4 84 1.0 NW 11 17 6 9 1015.4 1015.4 0.0
25/10:00pm 5.1 1.9 3.0 86 0.9 NW 9 11 5 6 1015.5 1015.5 0.0
25/09:30pm 5.2 1.6 3.2 87 0.8 NW 11 15 6 8 1015.4 1015.4 0.0
25/09:00pm 5.4 2.2 3.1 85 0.9 NW 9 13 5 7 1015.1 1015.1 0.0
25/08:30pm 5.8 2.6 3.3 84 1.0 NW 9 13 5 7 1015.0 1015.0 0.0
25/08:00pm 6.4 3.0 3.9 84 1.1 NW 11 15 6 8 1014.9 1014.9 0.0
25/07:30pm 6.8 3.4 4.1 83 1.2 WNW 11 15 6 8 1014.5 1014.5 0.0
25/07:00pm 6.9 3.6 4.6 85 1.0 WNW 11 13 6 7 1014.4 1014.4 0.0
25/06:30pm 6.6 3.3 4.4 86 0.9 WNW 11 15 6 8 1013.8 1013.8 0.0
25/06:00pm 6.4 3.8 4.1 85 1.0 NW 7 9 4 5 1013.6 1013.6 0.0
25/05:30pm 7.2 4.8 4.2 81 1.3 WNW 6 7 3 4 1013.4 1013.4 0.0
25/05:00pm 7.9 5.1 3.4 73 1.9 NW 7 9 4 5 1013.1 1013.1 0.0
25/04:30pm 8.9 6.2 3.5 69 2.3 N 7 9 4 5 1013.0 1013.0 0.0
25/04:00pm 12.3 9.7 4.3 58 3.6 N 7 7 4 4 1013.2 1013.2 0.0
25/03:30pm 13.7 12.1 2.6 47 4.9 CALM 0 7 0 4 1013.3 1013.3 0.0
25/03:00pm 14.0 10.8 2.9 47 4.9 WNW 9 17 5 9 1013.5 1013.5 0.0
25/02:30pm 13.6 9.9 2.5 47 4.9 W 11 17 6 9 1013.6 1013.6 0.0
25/02:00pm 13.3 8.7 1.3 44 5.1 W 15 24 8 13 1013.7 1013.7 0.0
25/01:30pm 13.3 9.0 1.3 44 5.1 W 13 22 7 12 1013.9 1013.9 0.0
25/01:00pm 12.8 8.5 0.9 44 5.0 WSW 13 19 7 10 1014.2 1014.2 0.0
25/12:30pm 12.5 8.4 2.1 49 4.5 NW 13 19 7 10 1014.6 1014.6 0.0
25/12:00pm 11.9 7.2 1.0 47 4.6 WNW 15 24 8 13 1015.2 1015.2 0.0
25/11:30am 12.1 8.9 2.8 53 4.1 NNW 9 17 5 9 1015.8 1015.8 0.0
25/11:00am 12.2 9.0 2.9 53 4.1 NW 9 13 5 7 1016.4 1016.4 0.0
25/10:30am 11.1 8.2 2.7 56 3.6 W 7 13 4 7 1017.0 1017.0 0.0
25/10:00am 9.9 6.8 3.4 64 2.8 WNW 9 11 5 6 1017.1 1017.1 0.0
25/09:30am 9.2 6.4 3.2 66 2.6 WNW 7 11 4 6 1017.1 1017.1 0.0
25/09:00am 7.5 4.3 3.0 73 1.9 WNW 9 13 5 7 1017.1 1017.1 0.4
25/08:30am 5.8 1.8 3.0 82 1.2 W 13 17 7 9 1016.9 1016.9 0.4
25/08:00am 3.8 0.4 2.0 88 0.7 WNW 9 17 5 9 1016.8 1016.8 0.4
25/07:30am 3.1 -0.4 1.3 88 0.7 WNW 9 15 5 8 1016.6 1016.6 0.4
25/07:00am 3.2 -0.3 1.3 87 0.7 NW 9 15 5 8 1016.3 1016.3 0.4
25/06:30am 3.9 0.5 1.6 85 0.9 W 9 13 5 7 1016.0 1016.0 0.4
25/06:00am 3.9 0.5 1.6 85 0.9 WNW 9 15 5 8 1015.8 1015.8 0.4
25/05:30am 4.1 0.3 1.6 84 1.0 WNW 11 15 6 8 1015.7 1015.7 0.4
25/05:00am 4.4 0.6 1.8 83 1.0 WNW 11 15 6 8 1015.4 1015.4 0.4
25/04:30am 4.6 0.8 1.8 82 1.1 WNW 11 15 6 8 1015.5 1015.5 0.4
25/04:00am 5.0 1.2 1.8 80 1.3 WNW 11 15 6 8 1015.7 1015.7 0.4
25/03:30am 5.2 1.5 2.2 81 1.2 WNW 11 15 6 8 1015.8 1015.8 0.4
25/03:00am 5.2 1.5 2.4 82 1.1 WNW 11 15 6 8 1016.1 1016.1 0.4
25/02:30am 5.4 1.7 2.6 82 1.1 WNW 11 17 6 9 1016.3 1016.3 0.4
25/02:00am 5.8 2.2 3.0 82 1.2 WNW 11 15 6 8 1016.3 1016.3 0.4
25/01:30am 6.0 2.8 3.2 82 1.2 WNW 9 15 5 8 1016.1 1016.1 0.4
25/01:00am 6.5 3.0 3.5 81 1.3 WNW 11 17 6 9 1016.3 1016.3 0.4
25/12:30am 6.4 3.3 3.4 81 1.3 NW 9 13 5 7 1016.5 1016.5 0.4
25/12:00am 6.6 3.1 3.6 81 1.3 WNW 11 17 6 9 1016.6 1016.6 0.4
 
Date/Time
EST
Temp
°C
App
Temp
°C
Dew
Point
°C
Rel
Hum
%
Delta-T
°C
Wind Press
QNH
hPa
Press
MSL
hPa
Rain since
9am
mm
Dir  Spd
km/h
Gust
km/h
Spd
kts
Gust
kts
24/11:30pm 6.4 2.5 3.6 82 1.2 NW 13 19 7 10 1016.8 1016.8 0.4
24/11:00pm 6.1 2.6 3.4 83 1.1 WNW 11 17 6 9 1017.0 1017.0 0.4
24/10:30pm 5.7 2.1 3.2 84 1.0 WNW 11 17 6 9 1017.1 1017.1 0.4
24/10:00pm 5.8 2.3 3.5 85 1.0 WNW 11 15 6 8 1017.0 1017.0 0.4
24/09:30pm 5.1 1.9 3.1 87 0.8 WNW 9 15 5 8 1017.1 1017.1 0.4
24/09:00pm 5.3 1.8 3.3 87 0.8 NW 11 15 6 8 1017.1 1017.1 0.4
24/08:30pm 5.3 1.4 3.3 87 0.8 NNW 13 15 7 8 1017.1 1017.1 0.4
24/08:00pm 5.1 1.9 3.0 86 0.9 NW 9 13 5 7 1017.0 1017.0 0.4
24/07:30pm 6.3 3.2 3.8 84 1.1 WNW 9 17 5 9 1016.9 1016.9 0.4
24/07:00pm 6.4 3.0 3.9 84 1.1 WNW 11 15 6 8 1016.7 1016.7 0.4

Other Formats:

Comma delimited format used in spreadsheet applications
http://www.bom.gov.au/fwo/IDV60801/IDV60801.94935.axf

JavaScript Object Notation format (JSON) in row-major order
http://www.bom.gov.au/fwo/IDV60801/IDV60801.94935.json